ADDS METAR Data INFO
IDs: Format: Raw Decoded Include TAF

Data at: 0753 UTC 17 Oct 2017

KMLS 170653Z AUTO 16007KT 10SM CLR 06/M01 A2999 RMK AO2 SLP151 T00611006 402220028
KMLS 170553Z AUTO 20005KT 10SM CLR 09/M01 A3000 RMK AO2 SLP154 T00891006 10189 20067 50000
KMLS 170453Z AUTO 19004KT 10SM CLR 08/M01 A3001 RMK AO2 SLP161 T00831011
KMLS 170353Z AUTO 22006KT 10SM CLR 10/M01 A3000 RMK AO2 SLP164 T01001006
KMLS 170253Z AUTO 10SM CLR 12/M01 A3000 RMK AO2 SLP164 T01171011 55003
KMLS 170153Z AUTO 18004KT 10SM CLR 15/M02 A2999 RMK AO2 SLP161 T01501017
KMLS 170053Z AUTO 20005KT 10SM CLR 16/M02 A2999 RMK AO2 SLP161 T01611017
KMLS 162353Z AUTO 27004KT 10SM CLR 19/M01 A3001 RMK AO2 SLP162 T01891011 10222 20183 57007
KMLS 162253Z AUTO 29009KT 10SM CLR 22/M02 A3001 RMK AO2 SLP162 T02171017
KMLS 162153Z AUTO 29011KT 10SM CLR 22/M02 A3002 RMK AO2 SLP163 T02221017
KMLS 162053Z AUTO 30016G20KT 10SM CLR 22/M02 A3003 RMK AO2 SLP167 T02171022 58013
KMLS 161953Z AUTO 30018G25KT 10SM CLR 22/M02 A3004 RMK AO2 PK WND 30026/1857 SLP172 T02171017
KMLS 161853Z AUTO 30018G25KT 10SM CLR 21/M01 A3006 RMK AO2 SLP178 T02111011
KMLS 161753Z AUTO 27015KT 10SM CLR 18/00 A3007 RMK AO2 SLP184 T01830000 10189 20028 50000
KMLS 161653Z AUTO 26011KT 10SM CLR 15/01 A3007 RMK AO2 SLP187 T01500006
KMLS 161553Z AUTO 23005KT 10SM CLR 10/01 A3008 RMK AO2 SLP192 T01000006
KMLS 161453Z AUTO 19006KT 10SM CLR 06/00 A3007 RMK AO2 SLP194 T00560000 53006
KMLS 161353Z AUTO 17005KT 10SM CLR 04/M01 A3006 RMK AO2 SLP190 T00391011
KMLS 161253Z AUTO 17006KT 10SM CLR 03/M01 A3005 RMK AO2 SLP185 T00281011
KMLS 161153Z AUTO 16006KT 10SM CLR 04/M01 A3005 RMK AO2 SLP182 T00391011 10044 20033 58007
KMLS 161053Z AUTO 15005KT 10SM CLR 04/M01 A3007 RMK AO2 SLP185 T00391011
KMLS 160953Z AUTO 14004KT 10SM CLR 04/M01 A3007 RMK AO2 SLP185 T00391011
KMLS 160853Z AUTO 16006KT 10SM CLR 04/M01 A3007 RMK AO2 SLP186 T00391011 58013
KMLS 160753Z AUTO 15005KT 10SM CLR 04/M01 A3009 RMK AO2 SLP193 T00391011
KMLS 160653Z AUTO 16007KT 10SM CLR 04/M01 A3010 RMK AO2 SLP198 T00391006 401611017
KMLS 160553Z AUTO 16008KT 10SM CLR 04/M01 A3011 RMK AO2 SLP203 T00391006 10139 20039 58014
KMLS 160453Z AUTO 15009KT 10SM CLR 06/M01 A3013 RMK AO2 SLP209 T00561006
KMLS 160353Z AUTO 15009KT 10SM CLR 07/M01 A3014 RMK AO2 SLP217 T00671006
KMLS 160253Z AUTO 15007KT 10SM CLR 07/M01 A3016 RMK AO2 SLP224 T00721006 58009
KMLS 160153Z AUTO 16007KT 10SM CLR 09/M01 A3017 RMK AO2 SLP231 T00941006
KMLS 160053Z AUTO 17005KT 10SM CLR 13/M01 A3017 RMK AO2 SLP230 T01281006
KMLS 152353Z AUTO 21005KT 10SM CLR 13/01 A3018 RMK AO2 SLP233 T01330006 10161 20133 58017
KMLS 152253Z AUTO 24010KT 10SM CLR 16/M01 A3020 RMK AO2 SLP236 T01611006
KMLS 152153Z AUTO 26010KT 10SM CLR 16/M01 A3022 RMK AO2 SLP244 T01611011
KMLS 152053Z AUTO 27012G18KT 10SM CLR 16/M01 A3024 RMK AO2 SLP249 T01611011 56024